sensor_id;sensor_type;location;lat;lon;timestamp;P1;durP1;ratioP1;P2;durP2;ratioP2
32786;SDS011;19139;49.372;8.580;2024-02-04T00:00:59;3.80;;;2.20;;
32786;SDS011;19139;49.372;8.580;2024-02-04T00:03:27;5.37;;;2.93;;
32786;SDS011;19139;49.372;8.580;2024-02-04T00:05:54;4.93;;;2.87;;
32786;SDS011;19139;49.372;8.580;2024-02-04T00:08:22;2.57;;;2.00;;
32786;SDS011;19139;49.372;8.580;2024-02-04T00:10:49;3.67;;;1.90;;
32786;SDS011;19139;49.372;8.580;2024-02-04T00:13:16;4.63;;;2.60;;
32786;SDS011;19139;49.372;8.580;2024-02-04T00:15:43;3.40;;;2.33;;
32786;SDS011;19139;49.372;8.580;2024-02-04T00:18:10;2.83;;;2.57;;
32786;SDS011;19139;49.372;8.580;2024-02-04T00:20:37;1.87;;;1.67;;
32786;SDS011;19139;49.372;8.580;2024-02-04T00:23:04;4.77;;;2.13;;
32786;SDS011;19139;49.372;8.580;2024-02-04T00:25:31;4.60;;;2.23;;
32786;SDS011;19139;49.372;8.580;2024-02-04T00:27:59;1.73;;;1.40;;
32786;SDS011;19139;49.372;8.580;2024-02-04T00:30:27;3.57;;;1.90;;
32786;SDS011;19139;49.372;8.580;2024-02-04T00:32:54;3.27;;;2.40;;
32786;SDS011;19139;49.372;8.580;2024-02-04T00:35:21;2.27;;;1.97;;
32786;SDS011;19139;49.372;8.580;2024-02-04T00:37:49;3.63;;;2.87;;
32786;SDS011;19139;49.372;8.580;2024-02-04T00:40:16;2.57;;;1.97;;
32786;SDS011;19139;49.372;8.580;2024-02-04T00:42:43;3.67;;;2.60;;
32786;SDS011;19139;49.372;8.580;2024-02-04T00:45:10;4.60;;;2.50;;
32786;SDS011;19139;49.372;8.580;2024-02-04T00:47:38;3.20;;;2.90;;
32786;SDS011;19139;49.372;8.580;2024-02-04T00:50:05;5.60;;;3.20;;
32786;SDS011;19139;49.372;8.580;2024-02-04T00:52:32;3.10;;;2.80;;
32786;SDS011;19139;49.372;8.580;2024-02-04T00:54:59;3.83;;;3.33;;
32786;SDS011;19139;49.372;8.580;2024-02-04T00:57:27;4.63;;;3.20;;
32786;SDS011;19139;49.372;8.580;2024-02-04T00:59:54;4.37;;;3.70;;
32786;SDS011;19139;49.372;8.580;2024-02-04T01:02:21;4.03;;;3.40;;
32786;SDS011;19139;49.372;8.580;2024-02-04T01:04:48;6.30;;;4.20;;
32786;SDS011;19139;49.372;8.580;2024-02-04T01:07:17;6.33;;;4.10;;
32786;SDS011;19139;49.372;8.580;2024-02-04T01:09:44;5.00;;;3.70;;
32786;SDS011;19139;49.372;8.580;2024-02-04T01:12:11;5.27;;;4.30;;
32786;SDS011;19139;49.372;8.580;2024-02-04T01:14:38;4.17;;;3.60;;
32786;SDS011;19139;49.372;8.580;2024-02-04T01:17:05;4.93;;;4.23;;
32786;SDS011;19139;49.372;8.580;2024-02-04T01:19:33;4.87;;;4.03;;
32786;SDS011;19139;49.372;8.580;2024-02-04T01:22:00;6.97;;;4.50;;
32786;SDS011;19139;49.372;8.580;2024-02-04T01:24:28;7.17;;;4.40;;
32786;SDS011;19139;49.372;8.580;2024-02-04T01:26:55;4.47;;;3.87;;
32786;SDS011;19139;49.372;8.580;2024-02-04T01:29:22;5.97;;;4.13;;
32786;SDS011;19139;49.372;8.580;2024-02-04T01:31:49;4.97;;;4.13;;
32786;SDS011;19139;49.372;8.580;2024-02-04T01:34:17;6.40;;;4.60;;
32786;SDS011;19139;49.372;8.580;2024-02-04T01:36:44;5.33;;;4.60;;
32786;SDS011;19139;49.372;8.580;2024-02-04T01:39:11;7.03;;;4.67;;
32786;SDS011;19139;49.372;8.580;2024-02-04T01:41:38;5.40;;;4.13;;
32786;SDS011;19139;49.372;8.580;2024-02-04T01:44:05;5.33;;;4.20;;
32786;SDS011;19139;49.372;8.580;2024-02-04T01:46:32;6.30;;;3.77;;
32786;SDS011;19139;49.372;8.580;2024-02-04T01:49:00;4.90;;;4.50;;
32786;SDS011;19139;49.372;8.580;2024-02-04T01:51:27;5.07;;;4.53;;
32786;SDS011;19139;49.372;8.580;2024-02-04T01:53:54;4.67;;;3.73;;
32786;SDS011;19139;49.372;8.580;2024-02-04T01:56:21;5.07;;;3.93;;
32786;SDS011;19139;49.372;8.580;2024-02-04T01:58:49;5.57;;;3.83;;
32786;SDS011;19139;49.372;8.580;2024-02-04T02:01:16;5.00;;;4.00;;
32786;SDS011;19139;49.372;8.580;2024-02-04T02:03:43;4.47;;;4.07;;
32786;SDS011;19139;49.372;8.580;2024-02-04T02:06:10;4.33;;;3.73;;
32786;SDS011;19139;49.372;8.580;2024-02-04T02:08:38;5.23;;;4.33;;
32786;SDS011;19139;49.372;8.580;2024-02-04T02:11:10;4.97;;;3.83;;
32786;SDS011;19139;49.372;8.580;2024-02-04T02:13:38;4.67;;;4.27;;
32786;SDS011;19139;49.372;8.580;2024-02-04T02:16:07;4.60;;;4.00;;
32786;SDS011;19139;49.372;8.580;2024-02-04T02:18:37;5.10;;;4.60;;
32786;SDS011;19139;49.372;8.580;2024-02-04T02:21:16;5.67;;;4.20;;
32786;SDS011;19139;49.372;8.580;2024-02-04T02:23:53;5.53;;;4.13;;
32786;SDS011;19139;49.372;8.580;2024-02-04T02:26:28;6.17;;;4.27;;
32786;SDS011;19139;49.372;8.580;2024-02-04T02:28:55;5.70;;;4.30;;
32786;SDS011;19139;49.372;8.580;2024-02-04T02:31:23;4.80;;;4.03;;
32786;SDS011;19139;49.372;8.580;2024-02-04T02:34:05;6.47;;;4.20;;
32786;SDS011;19139;49.372;8.580;2024-02-04T02:36:33;5.00;;;4.50;;
32786;SDS011;19139;49.372;8.580;2024-02-04T02:39:08;4.47;;;4.03;;
32786;SDS011;19139;49.372;8.580;2024-02-04T02:41:37;4.97;;;4.47;;
32786;SDS011;19139;49.372;8.580;2024-02-04T02:44:04;4.97;;;4.47;;
32786;SDS011;19139;49.372;8.580;2024-02-04T02:46:32;5.03;;;4.23;;
32786;SDS011;19139;49.372;8.580;2024-02-04T02:48:59;5.57;;;4.03;;
32786;SDS011;19139;49.372;8.580;2024-02-04T02:51:27;5.43;;;4.20;;
32786;SDS011;19139;49.372;8.580;2024-02-04T02:53:54;4.13;;;3.73;;
32786;SDS011;19139;49.372;8.580;2024-02-04T02:56:21;4.77;;;4.00;;
32786;SDS011;19139;49.372;8.580;2024-02-04T02:58:48;4.70;;;3.63;;
32786;SDS011;19139;49.372;8.580;2024-02-04T03:01:15;4.57;;;3.90;;
32786;SDS011;19139;49.372;8.580;2024-02-04T03:03:42;5.93;;;3.93;;
32786;SDS011;19139;49.372;8.580;2024-02-04T03:06:09;4.67;;;4.17;;
32786;SDS011;19139;49.372;8.580;2024-02-04T03:08:37;6.03;;;4.37;;
32786;SDS011;19139;49.372;8.580;2024-02-04T03:11:04;5.43;;;4.30;;
32786;SDS011;19139;49.372;8.580;2024-02-04T03:13:31;5.37;;;4.27;;
32786;SDS011;19139;49.372;8.580;2024-02-04T03:15:58;5.37;;;3.63;;
32786;SDS011;19139;49.372;8.580;2024-02-04T03:18:25;9.17;;;3.90;;
32786;SDS011;19139;49.372;8.580;2024-02-04T03:20:53;7.17;;;4.30;;
32786;SDS011;19139;49.372;8.580;2024-02-04T03:23:20;4.17;;;3.77;;
32786;SDS011;19139;49.372;8.580;2024-02-04T03:25:47;4.73;;;3.97;;
32786;SDS011;19139;49.372;8.580;2024-02-04T03:28:14;3.97;;;3.30;;
32786;SDS011;19139;49.372;8.580;2024-02-04T03:30:41;4.20;;;3.47;;
32786;SDS011;19139;49.372;8.580;2024-02-04T03:33:08;4.00;;;3.60;;
32786;SDS011;19139;49.372;8.580;2024-02-04T03:35:35;3.67;;;2.97;;
32786;SDS011;19139;49.372;8.580;2024-02-04T03:38:03;4.03;;;3.20;;
32786;SDS011;19139;49.372;8.580;2024-02-04T03:40:31;3.90;;;3.10;;
32786;SDS011;19139;49.372;8.580;2024-02-04T03:42:58;5.13;;;3.00;;
32786;SDS011;19139;49.372;8.580;2024-02-04T03:45:25;2.80;;;2.60;;
32786;SDS011;19139;49.372;8.580;2024-02-04T03:47:52;3.00;;;2.70;;
32786;SDS011;19139;49.372;8.580;2024-02-04T03:50:20;2.90;;;2.60;;
32786;SDS011;19139;49.372;8.580;2024-02-04T03:52:47;3.70;;;3.23;;
32786;SDS011;19139;49.372;8.580;2024-02-04T03:55:14;2.60;;;2.40;;
32786;SDS011;19139;49.372;8.580;2024-02-04T03:57:41;2.63;;;2.10;;
32786;SDS011;19139;49.372;8.580;2024-02-04T04:00:08;3.93;;;2.40;;
32786;SDS011;19139;49.372;8.580;2024-02-04T04:02:35;2.70;;;2.17;;
32786;SDS011;19139;49.372;8.580;2024-02-04T04:05:03;2.37;;;2.17;;
32786;SDS011;19139;49.372;8.580;2024-02-04T04:07:31;2.23;;;1.97;;
32786;SDS011;19139;49.372;8.580;2024-02-04T04:09:58;2.73;;;2.10;;
32786;SDS011;19139;49.372;8.580;2024-02-04T04:12:25;2.47;;;2.27;;
32786;SDS011;19139;49.372;8.580;2024-02-04T04:14:52;2.80;;;1.87;;
32786;SDS011;19139;49.372;8.580;2024-02-04T04:17:19;2.63;;;1.93;;
32786;SDS011;19139;49.372;8.580;2024-02-04T04:19:47;2.00;;;1.77;;
32786;SDS011;19139;49.372;8.580;2024-02-04T04:22:14;2.93;;;2.17;;
32786;SDS011;19139;49.372;8.580;2024-02-04T04:24:41;2.80;;;2.10;;
32786;SDS011;19139;49.372;8.580;2024-02-04T04:27:08;3.00;;;1.70;;
32786;SDS011;19139;49.372;8.580;2024-02-04T04:29:36;1.50;;;1.40;;
32786;SDS011;19139;49.372;8.580;2024-02-04T04:32:03;3.13;;;2.37;;
32786;SDS011;19139;49.372;8.580;2024-02-04T04:34:30;4.63;;;1.70;;
32786;SDS011;19139;49.372;8.580;2024-02-04T04:36:57;3.63;;;1.97;;
32786;SDS011;19139;49.372;8.580;2024-02-04T04:39:25;2.63;;;1.97;;
32786;SDS011;19139;49.372;8.580;2024-02-04T04:41:52;3.73;;;1.90;;
32786;SDS011;19139;49.372;8.580;2024-02-04T04:44:19;2.33;;;2.07;;
32786;SDS011;19139;49.372;8.580;2024-02-04T04:46:46;1.73;;;1.50;;
32786;SDS011;19139;49.372;8.580;2024-02-04T04:49:13;3.17;;;1.80;;
32786;SDS011;19139;49.372;8.580;2024-02-04T04:51:44;4.60;;;2.43;;
32786;SDS011;19139;49.372;8.580;2024-02-04T04:54:14;2.27;;;1.40;;
32786;SDS011;19139;49.372;8.580;2024-02-04T04:56:41;2.33;;;2.10;;
32786;SDS011;19139;49.372;8.580;2024-02-04T04:59:09;2.13;;;1.93;;
32786;SDS011;19139;49.372;8.580;2024-02-04T05:01:36;1.93;;;1.70;;
32786;SDS011;19139;49.372;8.580;2024-02-04T05:04:04;1.97;;;1.80;;
32786;SDS011;19139;49.372;8.580;2024-02-04T05:06:32;2.30;;;1.63;;
32786;SDS011;19139;49.372;8.580;2024-02-04T05:08:59;2.30;;;2.07;;
32786;SDS011;19139;49.372;8.580;2024-02-04T05:11:26;2.10;;;1.90;;
32786;SDS011;19139;49.372;8.580;2024-02-04T05:13:53;2.63;;;2.13;;
32786;SDS011;19139;49.372;8.580;2024-02-04T05:16:20;2.23;;;2.03;;
32786;SDS011;19139;49.372;8.580;2024-02-04T05:18:48;2.23;;;1.87;;
32786;SDS011;19139;49.372;8.580;2024-02-04T05:21:15;2.07;;;1.80;;
32786;SDS011;19139;49.372;8.580;2024-02-04T05:23:42;3.30;;;1.87;;
32786;SDS011;19139;49.372;8.580;2024-02-04T05:26:09;2.03;;;1.77;;
32786;SDS011;19139;49.372;8.580;2024-02-04T05:28:37;3.97;;;2.10;;
32786;SDS011;19139;49.372;8.580;2024-02-04T05:31:04;2.23;;;2.03;;
32786;SDS011;19139;49.372;8.580;2024-02-04T05:33:31;4.37;;;3.07;;
32786;SDS011;19139;49.372;8.580;2024-02-04T05:35:58;2.80;;;2.13;;
32786;SDS011;19139;49.372;8.580;2024-02-04T05:38:25;3.80;;;2.90;;
32786;SDS011;19139;49.372;8.580;2024-02-04T05:40:52;4.00;;;2.30;;
32786;SDS011;19139;49.372;8.580;2024-02-04T05:43:19;2.37;;;2.10;;
32786;SDS011;19139;49.372;8.580;2024-02-04T05:45:47;3.93;;;2.20;;
32786;SDS011;19139;49.372;8.580;2024-02-04T05:48:14;3.53;;;2.43;;
32786;SDS011;19139;49.372;8.580;2024-02-04T05:50:41;2.97;;;2.20;;
32786;SDS011;19139;49.372;8.580;2024-02-04T05:53:09;3.17;;;2.40;;
32786;SDS011;19139;49.372;8.580;2024-02-04T05:55:36;2.27;;;1.70;;
32786;SDS011;19139;49.372;8.580;2024-02-04T05:58:03;2.60;;;2.13;;
32786;SDS011;19139;49.372;8.580;2024-02-04T06:00:30;2.60;;;2.00;;
32786;SDS011;19139;49.372;8.580;2024-02-04T06:02:58;2.67;;;1.90;;
32786;SDS011;19139;49.372;8.580;2024-02-04T06:05:25;2.30;;;2.10;;
32786;SDS011;19139;49.372;8.580;2024-02-04T06:07:52;2.67;;;2.40;;
32786;SDS011;19139;49.372;8.580;2024-02-04T06:10:19;2.13;;;1.63;;
32786;SDS011;19139;49.372;8.580;2024-02-04T06:12:46;1.50;;;1.30;;
32786;SDS011;19139;49.372;8.580;2024-02-04T06:15:14;2.00;;;1.80;;
32786;SDS011;19139;49.372;8.580;2024-02-04T06:17:42;3.10;;;1.73;;
32786;SDS011;19139;49.372;8.580;2024-02-04T06:20:09;1.67;;;1.57;;
32786;SDS011;19139;49.372;8.580;2024-02-04T06:22:36;2.00;;;1.80;;
32786;SDS011;19139;49.372;8.580;2024-02-04T06:25:03;1.87;;;1.60;;
32786;SDS011;19139;49.372;8.580;2024-02-04T06:27:31;1.93;;;1.50;;
32786;SDS011;19139;49.372;8.580;2024-02-04T06:29:58;2.30;;;1.27;;
32786;SDS011;19139;49.372;8.580;2024-02-04T06:32:25;1.97;;;1.70;;
32786;SDS011;19139;49.372;8.580;2024-02-04T06:34:52;1.70;;;1.40;;
32786;SDS011;19139;49.372;8.580;2024-02-04T06:37:21;2.37;;;1.73;;
32786;SDS011;19139;49.372;8.580;2024-02-04T06:39:49;1.37;;;1.27;;
32786;SDS011;19139;49.372;8.580;2024-02-04T06:42:16;2.80;;;1.70;;
32786;SDS011;19139;49.372;8.580;2024-02-04T06:44:44;3.33;;;1.67;;
32786;SDS011;19139;49.372;8.580;2024-02-04T06:47:11;1.73;;;1.63;;
32786;SDS011;19139;49.372;8.580;2024-02-04T06:49:43;3.23;;;1.77;;
32786;SDS011;19139;49.372;8.580;2024-02-04T06:52:11;2.50;;;2.30;;
32786;SDS011;19139;49.372;8.580;2024-02-04T06:54:38;3.77;;;2.00;;
32786;SDS011;19139;49.372;8.580;2024-02-04T06:57:05;2.53;;;1.83;;
32786;SDS011;19139;49.372;8.580;2024-02-04T06:59:32;3.57;;;1.87;;
32786;SDS011;19139;49.372;8.580;2024-02-04T07:02:00;1.93;;;1.83;;
32786;SDS011;19139;49.372;8.580;2024-02-04T07:04:27;3.30;;;2.30;;
32786;SDS011;19139;49.372;8.580;2024-02-04T07:06:54;2.87;;;2.17;;
32786;SDS011;19139;49.372;8.580;2024-02-04T07:09:21;3.07;;;2.40;;
32786;SDS011;19139;49.372;8.580;2024-02-04T07:11:48;4.67;;;2.67;;
32786;SDS011;19139;49.372;8.580;2024-02-04T07:14:15;6.07;;;2.60;;
32786;SDS011;19139;49.372;8.580;2024-02-04T07:16:42;4.47;;;2.57;;
32786;SDS011;19139;49.372;8.580;2024-02-04T07:19:09;2.53;;;2.30;;
32786;SDS011;19139;49.372;8.580;2024-02-04T07:21:37;4.23;;;2.43;;
32786;SDS011;19139;49.372;8.580;2024-02-04T07:24:04;3.63;;;2.80;;
32786;SDS011;19139;49.372;8.580;2024-02-04T07:26:31;3.50;;;2.40;;
32786;SDS011;19139;49.372;8.580;2024-02-04T07:28:58;2.90;;;2.10;;
32786;SDS011;19139;49.372;8.580;2024-02-04T07:31:25;3.23;;;2.50;;
32786;SDS011;19139;49.372;8.580;2024-02-04T07:33:52;4.67;;;2.33;;
32786;SDS011;19139;49.372;8.580;2024-02-04T07:36:20;6.37;;;4.23;;
32786;SDS011;19139;49.372;8.580;2024-02-04T07:38:47;3.47;;;2.60;;
32786;SDS011;19139;49.372;8.580;2024-02-04T07:41:14;3.47;;;3.10;;
32786;SDS011;19139;49.372;8.580;2024-02-04T07:43:42;4.77;;;2.53;;
32786;SDS011;19139;49.372;8.580;2024-02-04T07:46:10;4.70;;;3.10;;
32786;SDS011;19139;49.372;8.580;2024-02-04T07:48:37;3.93;;;2.73;;
32786;SDS011;19139;49.372;8.580;2024-02-04T07:51:05;4.47;;;2.90;;
32786;SDS011;19139;49.372;8.580;2024-02-04T07:53:34;3.80;;;2.70;;
32786;SDS011;19139;49.372;8.580;2024-02-04T07:56:02;4.70;;;3.33;;
32786;SDS011;19139;49.372;8.580;2024-02-04T07:58:32;3.80;;;2.80;;
32786;SDS011;19139;49.372;8.580;2024-02-04T08:00:59;4.23;;;2.63;;
32786;SDS011;19139;49.372;8.580;2024-02-04T08:03:27;4.57;;;2.60;;
32786;SDS011;19139;49.372;8.580;2024-02-04T08:05:54;3.83;;;2.40;;
32786;SDS011;19139;49.372;8.580;2024-02-04T08:08:21;3.40;;;2.60;;
32786;SDS011;19139;49.372;8.580;2024-02-04T08:10:48;3.57;;;2.80;;
32786;SDS011;19139;49.372;8.580;2024-02-04T08:13:16;3.20;;;2.40;;
32786;SDS011;19139;49.372;8.580;2024-02-04T08:15:44;2.43;;;2.23;;
32786;SDS011;19139;49.372;8.580;2024-02-04T08:18:11;3.17;;;2.53;;
32786;SDS011;19139;49.372;8.580;2024-02-04T08:20:39;2.73;;;2.17;;
32786;SDS011;19139;49.372;8.580;2024-02-04T08:23:06;3.43;;;2.40;;
32786;SDS011;19139;49.372;8.580;2024-02-04T08:25:34;2.40;;;2.20;;
32786;SDS011;19139;49.372;8.580;2024-02-04T08:28:01;1.80;;;1.60;;
32786;SDS011;19139;49.372;8.580;2024-02-04T08:30:28;2.47;;;1.80;;
32786;SDS011;19139;49.372;8.580;2024-02-04T08:32:55;3.30;;;2.03;;
32786;SDS011;19139;49.372;8.580;2024-02-04T08:35:22;2.37;;;2.17;;
32786;SDS011;19139;49.372;8.580;2024-02-04T08:37:49;2.60;;;2.20;;
32786;SDS011;19139;49.372;8.580;2024-02-04T08:40:16;3.30;;;2.00;;
32786;SDS011;19139;49.372;8.580;2024-02-04T08:42:44;2.10;;;1.90;;
32786;SDS011;19139;49.372;8.580;2024-02-04T08:45:11;2.10;;;1.90;;
32786;SDS011;19139;49.372;8.580;2024-02-04T08:47:38;2.80;;;2.00;;
32786;SDS011;19139;49.372;8.580;2024-02-04T08:50:05;2.90;;;1.73;;
32786;SDS011;19139;49.372;8.580;2024-02-04T08:52:33;2.53;;;2.30;;
32786;SDS011;19139;49.372;8.580;2024-02-04T08:55:00;4.57;;;4.10;;
32786;SDS011;19139;49.372;8.580;2024-02-04T08:57:30;2.97;;;1.97;;
32786;SDS011;19139;49.372;8.580;2024-02-04T08:59:57;2.47;;;1.87;;
32786;SDS011;19139;49.372;8.580;2024-02-04T09:02:24;1.60;;;1.50;;
32786;SDS011;19139;49.372;8.580;2024-02-04T09:04:51;3.73;;;1.50;;
32786;SDS011;19139;49.372;8.580;2024-02-04T09:07:19;1.63;;;1.43;;
32786;SDS011;19139;49.372;8.580;2024-02-04T09:09:47;2.67;;;1.50;;
32786;SDS011;19139;49.372;8.580;2024-02-04T09:12:14;1.63;;;1.53;;
32786;SDS011;19139;49.372;8.580;2024-02-04T09:14:42;1.57;;;1.40;;
32786;SDS011;19139;49.372;8.580;2024-02-04T09:17:09;2.37;;;1.80;;
32786;SDS011;19139;49.372;8.580;2024-02-04T09:19:36;2.00;;;1.70;;
32786;SDS011;19139;49.372;8.580;2024-02-04T09:22:08;2.90;;;2.17;;
32786;SDS011;19139;49.372;8.580;2024-02-04T09:24:35;2.37;;;1.90;;
32786;SDS011;19139;49.372;8.580;2024-02-04T09:27:02;2.17;;;1.80;;
32786;SDS011;19139;49.372;8.580;2024-02-04T09:29:30;3.30;;;2.27;;
32786;SDS011;19139;49.372;8.580;2024-02-04T09:31:57;2.33;;;1.53;;
32786;SDS011;19139;49.372;8.580;2024-02-04T09:34:24;3.27;;;1.40;;
32786;SDS011;19139;49.372;8.580;2024-02-04T09:36:52;2.03;;;1.60;;
32786;SDS011;19139;49.372;8.580;2024-02-04T09:39:19;1.60;;;1.47;;
32786;SDS011;19139;49.372;8.580;2024-02-04T09:41:46;1.13;;;1.00;;
32786;SDS011;19139;49.372;8.580;2024-02-04T09:44:13;1.40;;;1.13;;
32786;SDS011;19139;49.372;8.580;2024-02-04T09:46:44;2.43;;;1.63;;
32786;SDS011;19139;49.372;8.580;2024-02-04T09:49:12;2.03;;;1.40;;
32786;SDS011;19139;49.372;8.580;2024-02-04T09:51:41;1.50;;;1.30;;
32786;SDS011;19139;49.372;8.580;2024-02-04T09:54:10;1.20;;;1.10;;
32786;SDS011;19139;49.372;8.580;2024-02-04T09:56:38;1.13;;;1.03;;
32786;SDS011;19139;49.372;8.580;2024-02-04T09:59:05;1.20;;;1.10;;
32786;SDS011;19139;49.372;8.580;2024-02-04T10:01:32;1.40;;;1.20;;
32786;SDS011;19139;49.372;8.580;2024-02-04T10:03:59;1.50;;;1.40;;
32786;SDS011;19139;49.372;8.580;2024-02-04T10:06:27;1.70;;;1.20;;
32786;SDS011;19139;49.372;8.580;2024-02-04T10:08:54;1.57;;;1.23;;
32786;SDS011;19139;49.372;8.580;2024-02-04T10:11:22;2.30;;;1.43;;
32786;SDS011;19139;49.372;8.580;2024-02-04T10:13:49;2.43;;;1.63;;
32786;SDS011;19139;49.372;8.580;2024-02-04T10:16:16;4.57;;;2.00;;
32786;SDS011;19139;49.372;8.580;2024-02-04T10:18:44;4.43;;;2.60;;
32786;SDS011;19139;49.372;8.580;2024-02-04T10:21:18;2.60;;;2.10;;
32786;SDS011;19139;49.372;8.580;2024-02-04T10:23:49;1.93;;;1.50;;
32786;SDS011;19139;49.372;8.580;2024-02-04T10:26:17;4.10;;;3.10;;
32786;SDS011;19139;49.372;8.580;2024-02-04T10:28:46;2.23;;;1.70;;
32786;SDS011;19139;49.372;8.580;2024-02-04T10:31:14;1.90;;;1.27;;
32786;SDS011;19139;49.372;8.580;2024-02-04T10:33:41;1.10;;;0.90;;
32786;SDS011;19139;49.372;8.580;2024-02-04T10:36:08;1.60;;;1.40;;
32786;SDS011;19139;49.372;8.580;2024-02-04T10:38:37;1.33;;;0.90;;
32786;SDS011;19139;49.372;8.580;2024-02-04T10:41:04;1.20;;;1.10;;
32786;SDS011;19139;49.372;8.580;2024-02-04T10:43:32;1.67;;;1.00;;
32786;SDS011;19139;49.372;8.580;2024-02-04T10:46:10;3.03;;;1.00;;
32786;SDS011;19139;49.372;8.580;2024-02-04T10:48:41;1.20;;;1.07;;
32786;SDS011;19139;49.372;8.580;2024-02-04T10:51:14;0.80;;;0.80;;
32786;SDS011;19139;49.372;8.580;2024-02-04T10:53:42;1.00;;;0.90;;
32786;SDS011;19139;49.372;8.580;2024-02-04T10:56:32;1.13;;;0.83;;
32786;SDS011;19139;49.372;8.580;2024-02-04T10:58:59;0.80;;;0.77;;
32786;SDS011;19139;49.372;8.580;2024-02-04T11:01:29;2.20;;;0.90;;
32786;SDS011;19139;49.372;8.580;2024-02-04T11:03:57;0.70;;;0.70;;
32786;SDS011;19139;49.372;8.580;2024-02-04T11:06:25;1.43;;;0.80;;
32786;SDS011;19139;49.372;8.580;2024-02-04T11:08:53;0.90;;;0.77;;
32786;SDS011;19139;49.372;8.580;2024-02-04T11:11:23;0.83;;;0.83;;
32786;SDS011;19139;49.372;8.580;2024-02-04T11:13:54;1.87;;;0.80;;
32786;SDS011;19139;49.372;8.580;2024-02-04T11:16:31;1.13;;;0.60;;
32786;SDS011;19139;49.372;8.580;2024-02-04T11:21:55;0.43;;;0.43;;
32786;SDS011;19139;49.372;8.580;2024-02-04T11:24:32;0.73;;;0.50;;
32786;SDS011;19139;49.372;8.580;2024-02-04T11:27:04;1.50;;;0.70;;
32786;SDS011;19139;49.372;8.580;2024-02-04T11:29:31;1.07;;;0.63;;
32786;SDS011;19139;49.372;8.580;2024-02-04T11:31:58;2.23;;;1.10;;
32786;SDS011;19139;49.372;8.580;2024-02-04T11:34:25;1.30;;;1.20;;
32786;SDS011;19139;49.372;8.580;2024-02-04T11:36:53;1.60;;;1.20;;
32786;SDS011;19139;49.372;8.580;2024-02-04T11:39:21;0.90;;;0.80;;
32786;SDS011;19139;49.372;8.580;2024-02-04T11:41:50;1.03;;;0.57;;
32786;SDS011;19139;49.372;8.580;2024-02-04T11:44:24;1.90;;;0.90;;
32786;SDS011;19139;49.372;8.580;2024-02-04T11:46:52;3.10;;;1.27;;
32786;SDS011;19139;49.372;8.580;2024-02-04T11:49:24;1.00;;;0.80;;
32786;SDS011;19139;49.372;8.580;2024-02-04T11:51:54;1.07;;;0.70;;
32786;SDS011;19139;49.372;8.580;2024-02-04T11:54:21;2.23;;;0.87;;
32786;SDS011;19139;49.372;8.580;2024-02-04T11:56:49;1.57;;;0.90;;
32786;SDS011;19139;49.372;8.580;2024-02-04T11:59:20;0.93;;;0.80;;
32786;SDS011;19139;49.372;8.580;2024-02-04T12:01:56;2.50;;;1.00;;
32786;SDS011;19139;49.372;8.580;2024-02-04T12:04:25;1.10;;;0.87;;
32786;SDS011;19139;49.372;8.580;2024-02-04T12:06:55;1.97;;;0.73;;
32786;SDS011;19139;49.372;8.580;2024-02-04T12:09:23;0.97;;;0.80;;
32786;SDS011;19139;49.372;8.580;2024-02-04T12:11:51;3.23;;;1.37;;
32786;SDS011;19139;49.372;8.580;2024-02-04T12:14:20;1.03;;;0.90;;
32786;SDS011;19139;49.372;8.580;2024-02-04T12:16:48;1.27;;;0.93;;
32786;SDS011;19139;49.372;8.580;2024-02-04T12:19:15;2.93;;;0.80;;
32786;SDS011;19139;49.372;8.580;2024-02-04T12:21:42;1.47;;;0.87;;
32786;SDS011;19139;49.372;8.580;2024-02-04T12:24:10;1.97;;;1.17;;
32786;SDS011;19139;49.372;8.580;2024-02-04T12:26:37;1.90;;;1.03;;
32786;SDS011;19139;49.372;8.580;2024-02-04T12:29:05;1.60;;;1.13;;
32786;SDS011;19139;49.372;8.580;2024-02-04T12:31:34;1.23;;;0.90;;
32786;SDS011;19139;49.372;8.580;2024-02-04T12:34:03;0.87;;;0.73;;
32786;SDS011;19139;49.372;8.580;2024-02-04T12:36:31;1.13;;;0.90;;
32786;SDS011;19139;49.372;8.580;2024-02-04T12:39:02;1.53;;;0.90;;
32786;SDS011;19139;49.372;8.580;2024-02-04T12:41:36;1.23;;;0.80;;
32786;SDS011;19139;49.372;8.580;2024-02-04T12:44:03;0.87;;;0.50;;
32786;SDS011;19139;49.372;8.580;2024-02-04T12:46:31;1.10;;;0.70;;
32786;SDS011;19139;49.372;8.580;2024-02-04T12:48:58;1.70;;;0.87;;
32786;SDS011;19139;49.372;8.580;2024-02-04T12:51:31;0.83;;;0.50;;
32786;SDS011;19139;49.372;8.580;2024-02-04T12:54:05;0.70;;;0.70;;
32786;SDS011;19139;49.372;8.580;2024-02-04T12:56:43;1.83;;;0.60;;
32786;SDS011;19139;49.372;8.580;2024-02-04T12:59:11;1.33;;;0.73;;
32786;SDS011;19139;49.372;8.580;2024-02-04T13:01:39;1.80;;;0.70;;
32786;SDS011;19139;49.372;8.580;2024-02-04T13:04:06;1.00;;;0.70;;
32786;SDS011;19139;49.372;8.580;2024-02-04T13:06:37;1.83;;;0.60;;
32786;SDS011;19139;49.372;8.580;2024-02-04T13:09:04;0.70;;;0.60;;
32786;SDS011;19139;49.372;8.580;2024-02-04T13:11:33;0.83;;;0.80;;
32786;SDS011;19139;49.372;8.580;2024-02-04T13:14:00;1.43;;;0.70;;
32786;SDS011;19139;49.372;8.580;2024-02-04T13:16:27;0.67;;;0.60;;
32786;SDS011;19139;49.372;8.580;2024-02-04T13:18:56;1.67;;;0.80;;
32786;SDS011;19139;49.372;8.580;2024-02-04T13:21:23;1.00;;;0.50;;
32786;SDS011;19139;49.372;8.580;2024-02-04T13:23:50;1.17;;;0.70;;
32786;SDS011;19139;49.372;8.580;2024-02-04T13:26:18;1.13;;;0.70;;
32786;SDS011;19139;49.372;8.580;2024-02-04T13:28:45;2.43;;;0.80;;
32786;SDS011;19139;49.372;8.580;2024-02-04T13:31:12;0.57;;;0.57;;
32786;SDS011;19139;49.372;8.580;2024-02-04T13:33:40;2.17;;;0.90;;
32786;SDS011;19139;49.372;8.580;2024-02-04T13:36:08;1.57;;;0.60;;
32786;SDS011;19139;49.372;8.580;2024-02-04T13:38:36;0.50;;;0.50;;
32786;SDS011;19139;49.372;8.580;2024-02-04T13:41:03;1.90;;;0.83;;
32786;SDS011;19139;49.372;8.580;2024-02-04T13:43:32;1.80;;;0.73;;
32786;SDS011;19139;49.372;8.580;2024-02-04T13:46:00;1.00;;;0.70;;
32786;SDS011;19139;49.372;8.580;2024-02-04T13:48:30;1.67;;;1.00;;
32786;SDS011;19139;49.372;8.580;2024-02-04T13:50:57;1.67;;;1.33;;
32786;SDS011;19139;49.372;8.580;2024-02-04T13:53:24;1.00;;;0.70;;
32786;SDS011;19139;49.372;8.580;2024-02-04T13:55:53;0.80;;;0.80;;
32786;SDS011;19139;49.372;8.580;2024-02-04T13:58:24;1.00;;;0.73;;
32786;SDS011;19139;49.372;8.580;2024-02-04T14:00:52;1.00;;;0.73;;
32786;SDS011;19139;49.372;8.580;2024-02-04T14:03:20;0.93;;;0.70;;
32786;SDS011;19139;49.372;8.580;2024-02-04T14:05:47;3.03;;;1.00;;
32786;SDS011;19139;49.372;8.580;2024-02-04T14:08:15;1.33;;;1.23;;
32786;SDS011;19139;49.372;8.580;2024-02-04T14:10:42;1.87;;;1.30;;
32786;SDS011;19139;49.372;8.580;2024-02-04T14:13:10;2.20;;;0.90;;
32786;SDS011;19139;49.372;8.580;2024-02-04T14:15:38;2.47;;;1.27;;
32786;SDS011;19139;49.372;8.580;2024-02-04T14:18:05;2.20;;;1.37;;
32786;SDS011;19139;49.372;8.580;2024-02-04T14:20:32;1.07;;;0.97;;
32786;SDS011;19139;49.372;8.580;2024-02-04T14:22:59;1.93;;;1.53;;
32786;SDS011;19139;49.372;8.580;2024-02-04T14:25:27;0.90;;;0.80;;
32786;SDS011;19139;49.372;8.580;2024-02-04T14:27:56;1.97;;;1.00;;
32786;SDS011;19139;49.372;8.580;2024-02-04T14:30:23;3.63;;;3.23;;
32786;SDS011;19139;49.372;8.580;2024-02-04T14:32:50;4.03;;;3.10;;
32786;SDS011;19139;49.372;8.580;2024-02-04T14:35:17;4.50;;;3.33;;
32786;SDS011;19139;49.372;8.580;2024-02-04T14:37:45;25.40;;;15.83;;
32786;SDS011;19139;49.372;8.580;2024-02-04T14:40:12;5.50;;;4.63;;
32786;SDS011;19139;49.372;8.580;2024-02-04T14:42:39;2.50;;;1.87;;
32786;SDS011;19139;49.372;8.580;2024-02-04T14:45:08;1.53;;;1.40;;
32786;SDS011;19139;49.372;8.580;2024-02-04T14:47:37;3.50;;;3.20;;
32786;SDS011;19139;49.372;8.580;2024-02-04T14:50:04;2.47;;;1.60;;
32786;SDS011;19139;49.372;8.580;2024-02-04T14:52:32;3.13;;;2.93;;
32786;SDS011;19139;49.372;8.580;2024-02-04T14:54:59;4.13;;;3.20;;